createdAt,value
2019-05-30T00:01:12.727Z,70.49
2019-05-30T00:03:43.249Z,70.78
2019-05-30T00:06:13.837Z,70.51
2019-05-30T00:08:44.485Z,70.40
2019-05-30T00:11:15.061Z,70.87
2019-05-30T00:13:45.941Z,70.43
2019-05-30T00:16:16.779Z,70.94
2019-05-30T00:18:47.485Z,71.68
2019-05-30T00:21:19.552Z,72.43
2019-05-30T00:23:50.557Z,72.37
2019-05-30T00:26:21.281Z,72.21
2019-05-30T00:28:52.021Z,72.07
2019-05-30T00:31:23.021Z,71.85
2019-05-30T00:33:53.828Z,71.70
2019-05-30T00:36:24.712Z,71.40
2019-05-30T00:38:55.674Z,71.17
2019-05-30T00:41:27.493Z,71.39
2019-05-30T00:43:58.309Z,71.55
2019-05-30T00:46:28.951Z,71.72
2019-05-30T00:49:00.172Z,72.12
2019-05-30T00:51:31.004Z,72.22
2019-05-30T00:54:02.871Z,71.87
2019-05-30T00:56:33.668Z,71.99
2019-05-30T00:59:04.937Z,71.60
2019-05-30T01:01:35.931Z,71.49
2019-05-30T01:04:07.108Z,71.59
2019-05-30T01:06:38.046Z,71.68
2019-05-30T01:09:08.998Z,71.48
2019-05-30T01:11:39.761Z,71.19
2019-05-30T01:14:10.460Z,71.11
2019-05-30T01:16:42.694Z,70.47
2019-05-30T01:19:13.809Z,70.87
2019-05-30T01:21:44.728Z,70.92
2019-05-30T01:24:15.638Z,71.46
2019-05-30T01:26:46.506Z,71.40
2019-05-30T01:29:17.237Z,71.65
2019-05-30T01:31:48.182Z,71.38
2019-05-30T01:34:18.658Z,71.25
2019-05-30T01:36:49.287Z,71.17
2019-05-30T01:39:19.763Z,71.30
2019-05-30T01:41:50.318Z,71.21
2019-05-30T01:44:20.790Z,71.28
2019-05-30T01:46:51.346Z,71.30
2019-05-30T01:49:21.821Z,71.15
2019-05-30T01:51:52.322Z,71.05
2019-05-30T01:54:22.861Z,70.49
2019-05-30T01:56:53.381Z,70.98
2019-05-30T01:59:23.896Z,71.17
2019-05-30T02:01:54.413Z,71.12
2019-05-30T02:04:25.107Z,70.89
2019-05-30T02:06:55.551Z,70.84
2019-05-30T02:09:26.109Z,70.38
2019-05-30T02:11:56.621Z,70.63
2019-05-30T02:14:27.589Z,70.69
2019-05-30T02:16:59.494Z,71.09
2019-05-30T02:19:30.280Z,71.93
2019-05-30T02:22:01.660Z,71.68
2019-05-30T02:24:32.703Z,71.35
2019-05-30T02:27:04.193Z,71.29
2019-05-30T02:29:35.985Z,70.53
2019-05-30T02:32:07.665Z,70.49
2019-05-30T02:34:39.803Z,71.23
2019-05-30T02:37:12.697Z,71.28
2019-05-30T02:39:43.011Z,71.30
2019-05-30T02:42:13.846Z,71.55
2019-05-30T02:44:45.449Z,71.54
2019-05-30T02:47:16.255Z,71.97
2019-05-30T02:49:47.202Z,71.82
2019-05-30T02:52:18.016Z,71.88
2019-05-30T02:54:48.674Z,71.85
2019-05-30T02:57:19.636Z,72.02
2019-05-30T02:59:50.538Z,71.93
2019-05-30T03:02:21.323Z,71.58
2019-05-30T03:04:52.070Z,71.16
2019-05-30T03:07:23.072Z,70.83
2019-05-30T03:09:54.242Z,71.10
2019-05-30T03:12:25.705Z,71.65
2019-05-30T03:14:56.431Z,71.84
2019-05-30T03:17:26.972Z,72.01
2019-05-30T03:19:57.461Z,71.85
2019-05-30T03:22:27.940Z,71.95
2019-05-30T03:24:58.549Z,71.97
2019-05-30T03:27:29.062Z,71.80
2019-05-30T03:29:59.681Z,72.13
2019-05-30T03:33:02.570Z,71.97
2019-05-30T03:35:06.175Z,71.70
2019-05-30T03:37:34.563Z,71.86
2019-05-30T03:40:05.436Z,71.78
2019-05-30T03:42:35.901Z,72.16
2019-05-30T03:45:10.739Z,71.97
2019-05-30T03:47:42.739Z,72.19
2019-05-30T03:50:17.627Z,71.93
2019-05-30T03:52:49.535Z,72.32
2019-05-30T03:55:22.117Z,72.23
2019-05-30T03:58:00.456Z,72.17
2019-05-30T04:00:41.218Z,71.98
2019-05-30T04:03:19.215Z,72.12
2019-05-30T04:05:53.509Z,71.77
2019-05-30T04:08:25.142Z,71.93
2019-05-30T04:10:59.078Z,71.65
2019-05-30T04:14:01.421Z,71.77
2019-05-30T04:16:34.342Z,71.74
2019-05-30T04:19:04.959Z,71.70
2019-05-30T04:21:35.719Z,71.67
2019-05-30T04:24:09.550Z,71.76
2019-05-30T04:26:40.512Z,71.86
2019-05-30T04:29:12.299Z,71.83
2019-05-30T04:31:44.755Z,72.11
2019-05-30T04:34:17.238Z,71.85
2019-05-30T04:36:52.964Z,71.88
2019-05-30T04:39:20.782Z,71.95
2019-05-30T04:41:51.624Z,71.61
2019-05-30T04:44:22.226Z,71.78
2019-05-30T04:46:52.894Z,71.64
2019-05-30T04:49:23.618Z,72.30
2019-05-30T04:51:54.324Z,72.36
2019-05-30T04:54:26.122Z,72.25
2019-05-30T04:56:56.748Z,72.47
2019-05-30T04:59:27.370Z,72.37
2019-05-30T05:01:57.849Z,72.31
2019-05-30T05:04:28.321Z,72.48
2019-05-30T05:06:58.944Z,72.79
2019-05-30T05:09:29.417Z,72.76
2019-05-30T05:11:59.905Z,72.88
2019-05-30T05:14:30.477Z,72.31
2019-05-30T05:17:00.951Z,72.70
2019-05-30T05:19:31.457Z,72.66
2019-05-30T05:22:01.931Z,72.32
2019-05-30T05:24:33.428Z,71.93
2019-05-30T05:27:03.902Z,71.97
2019-05-30T05:29:34.434Z,71.50
2019-05-30T05:32:04.935Z,71.08
2019-05-30T05:34:35.441Z,71.24
2019-05-30T05:37:06.050Z,70.74
2019-05-30T05:39:36.962Z,70.46
2019-05-30T05:42:07.702Z,69.79
2019-05-30T05:44:38.481Z,69.37
2019-05-30T05:47:09.270Z,69.44
2019-05-30T05:49:40.159Z,69.00
2019-05-30T05:52:12.116Z,69.47
2019-05-30T05:54:42.689Z,69.29
2019-05-30T05:57:13.204Z,70.29
2019-05-30T05:59:43.825Z,68.96
2019-05-30T06:02:14.482Z,69.38
2019-05-30T06:04:45.098Z,69.03
2019-05-30T06:07:16.079Z,67.83
2019-05-30T06:09:46.655Z,69.81
2019-05-30T06:12:18.245Z,69.35
2019-05-30T06:14:48.751Z,69.76
2019-05-30T06:17:19.271Z,70.69
2019-05-30T06:19:49.871Z,70.63
2019-05-30T06:22:21.374Z,69.15
2019-05-30T06:24:51.926Z,67.88
2019-05-30T06:27:22.457Z,67.08
2019-05-30T06:29:52.937Z,67.62
2019-05-30T06:32:24.670Z,68.08
2019-05-30T06:34:56.173Z,67.17
2019-05-30T06:37:27.297Z,65.71
2019-05-30T06:39:58.707Z,65.54
2019-05-30T06:42:30.311Z,65.83
2019-05-30T06:45:00.902Z,66.31
2019-05-30T06:47:31.377Z,66.68
2019-05-30T06:50:01.896Z,66.31
2019-05-30T06:52:32.473Z,65.25
2019-05-30T06:55:03.065Z,65.56
2019-05-30T06:57:33.544Z,65.52
2019-05-30T07:00:04.304Z,65.08
2019-05-30T07:02:34.979Z,64.49
2019-05-30T07:05:06.960Z,65.05
2019-05-30T07:07:37.946Z,64.75
2019-05-30T07:10:09.186Z,64.43
2019-05-30T07:12:39.729Z,63.89
2019-05-30T07:15:10.837Z,63.08
2019-05-30T07:17:41.462Z,63.97
2019-05-30T07:20:12.840Z,63.46
2019-05-30T07:22:43.445Z,63.12
2019-05-30T07:25:14.277Z,61.96
2019-05-30T07:27:44.790Z,61.71
2019-05-30T07:30:15.664Z,60.09
2019-05-30T07:32:46.179Z,60.68
2019-05-30T07:35:17.211Z,59.73
2019-05-30T07:37:47.835Z,60.08
2019-05-30T07:40:19.822Z,61.72
2019-05-30T07:42:50.912Z,61.81
2019-05-30T07:45:22.647Z,60.83
2019-05-30T07:47:53.410Z,60.94
2019-05-30T07:50:24.504Z,60.27
2019-05-30T07:52:55.247Z,59.39
2019-05-30T07:55:26.923Z,59.72
2019-05-30T07:57:57.674Z,58.53
2019-05-30T08:00:29.577Z,60.15
2019-05-30T08:03:00.374Z,59.49
2019-05-30T08:05:31.214Z,60.28
2019-05-30T08:08:02.051Z,59.36
2019-05-30T08:10:34.009Z,60.43
2019-05-30T08:13:04.914Z,60.01
2019-05-30T08:15:38.766Z,60.12
2019-05-30T08:18:08.227Z,59.77
2019-05-30T08:20:39.175Z,59.93
2019-05-30T08:23:10.163Z,60.45
2019-05-30T08:25:41.013Z,60.88
2019-05-30T08:28:11.880Z,59.36
2019-05-30T08:30:42.536Z,57.95
2019-05-30T08:33:13.378Z,58.46
2019-05-30T08:35:50.031Z,58.52
2019-05-30T08:38:16.993Z,58.72
2019-05-30T08:40:47.931Z,54.76
2019-05-30T08:43:18.672Z,54.90
2019-05-30T08:45:49.402Z,53.06
2019-05-30T08:48:20.002Z,54.01
2019-05-30T08:50:50.662Z,51.74
2019-05-30T08:53:21.401Z,52.71
2019-05-30T08:55:51.963Z,52.32
2019-05-30T08:58:23.317Z,51.93
2019-05-30T09:00:54.129Z,49.92
2019-05-30T09:03:24.613Z,51.20
2019-05-30T09:06:03.310Z,51.46
2019-05-30T09:08:27.308Z,46.79
2019-05-30T09:10:57.880Z,49.53
2019-05-30T09:13:28.397Z,47.52
2019-05-30T09:15:59.201Z,47.21
2019-05-30T09:18:29.712Z,47.71
2019-05-30T09:21:00.317Z,48.26
2019-05-30T09:23:30.796Z,47.19
2019-05-30T09:26:01.315Z,45.44
2019-05-30T09:28:33.019Z,44.53
2019-05-30T09:31:03.498Z,43.55
2019-05-30T09:33:34.021Z,44.88
2019-05-30T09:36:13.285Z,46.24
2019-05-30T09:38:36.960Z,46.16
2019-05-30T09:41:07.761Z,46.10
2019-05-30T09:43:39.833Z,46.16
2019-05-30T09:46:11.112Z,42.88
2019-05-30T09:48:43.174Z,43.63
2019-05-30T09:51:14.125Z,45.24
2019-05-30T09:53:45.972Z,44.72
2019-05-30T09:56:17.893Z,45.40
2019-05-30T09:58:49.800Z,45.47
2019-05-30T10:01:20.566Z,42.68
2019-05-30T10:03:52.329Z,42.52
2019-05-30T10:06:29.336Z,42.67
2019-05-30T10:08:56.554Z,41.36
2019-05-30T10:11:27.333Z,44.31
2019-05-30T10:13:59.396Z,41.43
2019-05-30T10:16:30.982Z,42.97
2019-05-30T10:19:01.714Z,38.82
2019-05-30T10:21:32.577Z,39.50
2019-05-30T10:24:03.287Z,39.55
2019-05-30T10:26:34.213Z,38.64
2019-05-30T10:29:05.150Z,36.17
2019-05-30T10:31:35.759Z,37.99
2019-05-30T10:34:06.872Z,37.76
2019-05-30T10:36:44.271Z,35.57
2019-05-30T10:39:10.388Z,37.92
2019-05-30T10:41:41.154Z,35.44
2019-05-30T10:44:11.953Z,36.44
2019-05-30T10:46:42.771Z,37.66
2019-05-30T10:49:13.664Z,35.12
2019-05-30T10:51:46.193Z,32.09
2019-05-30T10:54:16.863Z,37.68
2019-05-30T10:56:48.419Z,31.84
2019-05-30T10:59:20.105Z,33.22
2019-05-30T11:01:50.801Z,33.28
2019-05-30T11:04:21.817Z,33.87
2019-05-30T11:07:21.084Z,32.99
2019-05-30T11:09:57.766Z,33.55
2019-05-30T11:12:28.553Z,35.05
2019-05-30T11:14:59.288Z,32.98
2019-05-30T11:17:29.858Z,29.02
2019-05-30T11:20:00.359Z,28.15
2019-05-30T11:22:30.896Z,28.60
2019-05-30T11:25:01.434Z,29.81
2019-05-30T11:27:31.957Z,29.96
2019-05-30T11:30:02.412Z,27.05
2019-05-30T11:32:33.015Z,28.51
2019-05-30T11:35:03.507Z,29.05
2019-05-30T11:37:34.013Z,27.19
2019-05-30T11:40:04.815Z,29.10
2019-05-30T11:42:36.335Z,30.30
2019-05-30T11:45:07.518Z,32.53
2019-05-30T11:47:37.989Z,29.51
2019-05-30T11:50:08.907Z,30.20
2019-05-30T11:52:39.420Z,32.13
2019-05-30T11:55:10.199Z,29.24
2019-05-30T11:57:40.740Z,31.08
2019-05-30T12:00:11.793Z,32.07
2019-05-30T12:02:42.893Z,27.72
2019-05-30T12:05:14.054Z,28.90
2019-05-30T12:07:44.943Z,28.17
2019-05-30T12:10:16.261Z,28.61
2019-05-30T12:12:47.267Z,33.73
2019-05-30T12:15:18.276Z,32.68
2019-05-30T12:17:49.325Z,30.31
2019-05-30T12:20:20.522Z,30.01
2019-05-30T12:22:51.798Z,31.28
2019-05-30T12:25:22.955Z,30.57
2019-05-30T12:27:54.007Z,34.15
2019-05-30T12:30:27.040Z,34.81
2019-05-30T12:32:58.340Z,32.54
2019-05-30T12:35:29.212Z,28.99
2019-05-30T12:38:04.585Z,29.23
2019-05-30T12:40:32.676Z,30.45
2019-05-30T12:43:04.953Z,31.64
2019-05-30T12:45:37.065Z,28.95
2019-05-30T12:48:07.861Z,30.40
2019-05-30T12:50:38.693Z,32.39
2019-05-30T12:53:09.586Z,30.60
2019-05-30T12:55:40.397Z,28.45
2019-05-30T12:58:11.158Z,28.37
2019-05-30T13:00:42.533Z,29.54
2019-05-30T13:03:13.440Z,29.50
2019-05-30T13:05:44.309Z,29.85
2019-05-30T13:08:21.571Z,32.54
2019-05-30T13:10:47.942Z,29.56
2019-05-30T13:13:18.799Z,29.02
2019-05-30T13:15:49.588Z,28.72
2019-05-30T13:18:20.600Z,28.50
2019-05-30T13:20:51.381Z,29.01
2019-05-30T13:23:22.367Z,27.51
2019-05-30T13:25:53.229Z,28.10
2019-05-30T13:28:24.102Z,29.30
2019-05-30T13:30:56.105Z,29.67
2019-05-30T13:33:26.730Z,28.41
2019-05-30T13:35:57.342Z,27.66
2019-05-30T13:38:27.822Z,27.51
2019-05-30T13:40:59.339Z,26.79
2019-05-30T13:43:29.837Z,27.07
2019-05-30T13:46:00.330Z,26.00
2019-05-30T13:48:30.809Z,27.02
2019-05-30T13:51:01.322Z,24.90
2019-05-30T13:53:31.820Z,26.64
2019-05-30T13:56:03.442Z,25.62
2019-05-30T13:58:33.907Z,25.88
2019-05-30T14:01:09.400Z,25.33
2019-05-30T14:03:37.249Z,24.09
2019-05-30T14:06:08.378Z,25.03
2019-05-30T14:08:41.942Z,26.99
2019-05-30T14:11:11.841Z,26.55
2019-05-30T14:13:42.633Z,26.59
2019-05-30T14:16:13.514Z,26.02
2019-05-30T14:18:44.399Z,26.31
2019-05-30T14:21:15.415Z,25.52
2019-05-30T14:23:46.193Z,24.38
2019-05-30T14:26:16.897Z,22.67
2019-05-30T14:28:47.541Z,25.40
2019-05-30T14:31:18.351Z,26.45
2019-05-30T14:33:49.125Z,26.15
2019-05-30T14:36:19.982Z,25.65
2019-05-30T14:38:58.245Z,30.33
2019-05-30T14:41:23.066Z,33.92
2019-05-30T14:43:53.784Z,23.98
2019-05-30T14:46:24.496Z,29.62
2019-05-30T14:48:55.095Z,28.72
2019-05-30T14:51:25.996Z,30.68
2019-05-30T14:53:56.869Z,30.46
2019-05-30T14:56:27.661Z,28.42
2019-05-30T14:58:58.539Z,30.11
2019-05-30T15:01:29.585Z,30.66
2019-05-30T15:04:00.444Z,29.62
2019-05-30T15:06:31.233Z,31.65
2019-05-30T15:09:15.313Z,30.06
2019-05-30T15:11:34.661Z,30.73
2019-05-30T15:14:06.668Z,29.69
2019-05-30T15:16:37.777Z,30.37
2019-05-30T15:19:08.577Z,30.85
2019-05-30T15:21:39.414Z,30.00
2019-05-30T15:24:12.751Z,31.40
2019-05-30T15:26:43.910Z,31.88
2019-05-30T15:29:14.789Z,29.69
2019-05-30T15:31:45.699Z,31.29
2019-05-30T15:34:16.845Z,33.47
2019-05-30T15:36:47.413Z,31.51
2019-05-30T15:39:31.606Z,30.89
2019-05-30T15:41:50.214Z,32.20
2019-05-30T15:44:20.906Z,30.05
2019-05-30T15:46:51.435Z,30.75
2019-05-30T15:49:21.913Z,29.25
2019-05-30T15:51:52.434Z,30.11
2019-05-30T15:54:22.914Z,33.13
2019-05-30T15:56:53.394Z,30.00
2019-05-30T15:59:23.901Z,31.37
2019-05-30T16:01:54.390Z,31.29
2019-05-30T16:04:25.004Z,30.95
2019-05-30T16:06:55.486Z,30.18
2019-05-30T16:09:26.422Z,30.22
2019-05-30T16:11:57.126Z,31.69
2019-05-30T16:14:27.782Z,29.92
2019-05-30T16:16:58.618Z,30.25
2019-05-30T16:19:29.444Z,31.20
2019-05-30T16:22:00.194Z,31.71
2019-05-30T16:24:31.449Z,31.72
2019-05-30T16:27:02.273Z,30.37
2019-05-30T16:29:33.017Z,31.36
2019-05-30T16:32:03.830Z,30.01
2019-05-30T16:34:34.544Z,30.44
2019-05-30T16:37:05.361Z,30.67
2019-05-30T16:39:36.046Z,32.06
2019-05-30T16:42:06.977Z,31.40
2019-05-30T16:44:37.783Z,32.71
2019-05-30T16:47:08.658Z,31.87
2019-05-30T16:49:39.529Z,33.36
2019-05-30T16:52:10.226Z,31.68
2019-05-30T16:54:41.233Z,32.76
2019-05-30T16:57:12.097Z,32.18
2019-05-30T16:59:42.779Z,38.33
2019-05-30T17:02:14.681Z,36.06
2019-05-30T17:04:45.817Z,34.40
2019-05-30T17:07:17.013Z,33.58
2019-05-30T17:09:47.964Z,39.80
2019-05-30T17:12:19.563Z,40.72
2019-05-30T17:14:50.446Z,41.99
2019-05-30T17:17:22.175Z,42.41
2019-05-30T17:19:53.265Z,43.84
2019-05-30T17:22:25.229Z,43.47
2019-05-30T17:24:56.841Z,44.81
2019-05-30T17:27:27.870Z,45.07
2019-05-30T17:29:58.579Z,45.75
2019-05-30T17:32:29.441Z,45.66
2019-05-30T17:35:00.389Z,45.40
2019-05-30T17:37:31.149Z,44.18
2019-05-30T17:40:01.986Z,41.13
2019-05-30T17:42:33.830Z,44.29
2019-05-30T17:45:05.599Z,45.13
2019-05-30T17:47:36.246Z,44.05
2019-05-30T17:50:07.578Z,44.04
2019-05-30T17:52:38.112Z,42.02
2019-05-30T17:55:10.155Z,38.39
2019-05-30T17:57:40.773Z,41.85
2019-05-30T18:00:12.630Z,43.19
2019-05-30T18:02:43.428Z,43.60
2019-05-30T18:05:14.795Z,44.81
2019-05-30T18:07:45.460Z,45.50
2019-05-30T18:10:16.745Z,45.87
2019-05-30T18:12:47.277Z,43.39
2019-05-30T18:15:19.426Z,46.09
2019-05-30T18:17:49.952Z,46.52
2019-05-30T18:20:21.161Z,47.70
2019-05-30T18:22:51.664Z,48.07
2019-05-30T18:25:23.500Z,49.11
2019-05-30T18:27:54.362Z,49.21
2019-05-30T18:30:38.651Z,50.44
2019-05-30T18:33:09.454Z,50.67
2019-05-30T18:35:40.327Z,51.79
2019-05-30T18:38:11.231Z,52.09
2019-05-30T18:40:42.116Z,52.41
2019-05-30T18:43:12.927Z,52.86
2019-05-30T18:45:44.285Z,53.67
2019-05-30T18:48:16.037Z,53.92
2019-05-30T18:50:46.983Z,53.97
2019-05-30T18:53:17.885Z,54.30
2019-05-30T18:55:48.671Z,53.87
2019-05-30T18:58:19.382Z,54.56
2019-05-30T19:00:50.381Z,54.99
2019-05-30T19:03:21.257Z,55.03
2019-05-30T19:05:52.036Z,55.69
2019-05-30T19:08:23.618Z,55.71
2019-05-30T19:10:54.525Z,56.13
2019-05-30T19:13:25.329Z,56.33
2019-05-30T19:15:56.359Z,57.17
2019-05-30T19:18:27.313Z,57.20
2019-05-30T19:20:58.201Z,57.78
2019-05-30T19:23:30.033Z,52.94
2019-05-30T19:26:00.798Z,54.29
2019-05-30T19:28:32.509Z,55.37
2019-05-30T19:31:03.361Z,54.93
2019-05-30T19:33:34.921Z,56.51
2019-05-30T19:36:06.008Z,56.92
2019-05-30T19:38:37.610Z,57.48
2019-05-30T19:41:08.564Z,57.20
2019-05-30T19:43:39.452Z,57.55
2019-05-30T19:46:13.161Z,57.63
2019-05-30T19:48:42.763Z,57.36
2019-05-30T19:51:13.406Z,57.41
2019-05-30T19:53:44.238Z,57.00
2019-05-30T19:56:14.937Z,57.04
2019-05-30T19:58:45.902Z,57.31
2019-05-30T20:01:16.505Z,57.42
2019-05-30T20:03:47.215Z,56.96
2019-05-30T20:06:17.750Z,57.44
2019-05-30T20:08:55.438Z,57.50
2019-05-30T20:11:20.440Z,56.90
2019-05-30T20:13:51.013Z,57.21
2019-05-30T20:16:21.550Z,56.17
2019-05-30T20:18:52.039Z,57.15
2019-05-30T20:21:22.595Z,57.66
2019-05-30T20:23:58.360Z,57.66
2019-05-30T20:26:25.280Z,58.49
2019-05-30T20:28:55.769Z,58.77
2019-05-30T20:31:26.239Z,58.73
2019-05-30T20:33:56.797Z,58.64
2019-05-30T20:36:27.437Z,58.95
2019-05-30T20:38:57.936Z,58.92
2019-05-30T20:41:29.042Z,58.52
2019-05-30T20:43:59.829Z,58.46
2019-05-30T20:46:30.829Z,59.89
2019-05-30T20:49:01.669Z,60.58
2019-05-30T20:51:34.920Z,61.20
2019-05-30T20:54:04.979Z,62.46
2019-05-30T20:56:35.657Z,63.20
2019-05-30T20:59:09.915Z,63.10
2019-05-30T21:01:39.672Z,63.40
2019-05-30T21:04:10.589Z,61.92
2019-05-30T21:06:43.128Z,62.27
2019-05-30T21:09:27.964Z,61.95
2019-05-30T21:11:47.027Z,61.42
2019-05-30T21:14:18.497Z,60.81
2019-05-30T21:16:51.786Z,60.89
2019-05-30T21:19:22.785Z,60.24
2019-05-30T21:21:53.679Z,60.54
2019-05-30T21:24:25.741Z,61.17
2019-05-30T21:26:56.402Z,61.22
2019-05-30T21:29:27.213Z,61.65
2019-05-30T21:31:58.138Z,62.08
2019-05-30T21:34:28.906Z,62.67
2019-05-30T21:36:59.857Z,62.33
2019-05-30T21:39:30.721Z,62.71
2019-05-30T21:42:01.677Z,62.88
2019-05-30T21:44:32.466Z,63.20
2019-05-30T21:47:03.440Z,62.99
2019-05-30T21:49:34.333Z,62.95
2019-05-30T21:52:05.230Z,63.11
2019-05-30T21:54:35.952Z,63.23
2019-05-30T21:57:06.794Z,63.51
2019-05-30T21:59:38.441Z,63.67
2019-05-30T22:02:09.830Z,63.70
2019-05-30T22:04:40.752Z,63.23
2019-05-30T22:07:11.452Z,63.29
2019-05-30T22:09:43.138Z,62.99
2019-05-30T22:12:14.045Z,62.50
2019-05-30T22:14:45.749Z,62.65
2019-05-30T22:17:16.506Z,63.46
2019-05-30T22:19:47.871Z,63.96
2019-05-30T22:22:18.622Z,64.37
2019-05-30T22:24:50.344Z,64.75
2019-05-30T22:27:21.253Z,64.46
2019-05-30T22:29:52.657Z,64.82
2019-05-30T22:32:23.224Z,64.52
2019-05-30T22:34:53.698Z,64.65
2019-05-30T22:37:24.201Z,64.04
2019-05-30T22:39:54.679Z,64.55
2019-05-30T22:42:25.193Z,64.51
2019-05-30T22:44:56.563Z,63.73
2019-05-30T22:47:27.099Z,63.83
2019-05-30T22:49:57.623Z,63.99
2019-05-30T22:52:28.102Z,63.62
2019-05-30T22:54:58.699Z,63.44
2019-05-30T22:57:29.176Z,62.57
2019-05-30T23:00:00.730Z,62.93
2019-05-30T23:02:32.938Z,63.07
2019-05-30T23:05:03.862Z,62.27
2019-05-30T23:07:34.748Z,62.07
2019-05-30T23:10:05.941Z,62.22
2019-05-30T23:12:36.821Z,62.26
2019-05-30T23:15:08.841Z,62.03
2019-05-30T23:17:39.416Z,63.38
2019-05-30T23:20:10.650Z,62.93
2019-05-30T23:22:41.472Z,62.46
2019-05-30T23:25:12.600Z,62.85
2019-05-30T23:27:43.437Z,62.05
2019-05-30T23:30:15.408Z,61.87
2019-05-30T23:32:46.393Z,61.56
2019-05-30T23:35:17.317Z,60.99
2019-05-30T23:37:48.488Z,60.99
2019-05-30T23:40:19.469Z,62.05
2019-05-30T23:42:50.985Z,62.09
2019-05-30T23:45:22.064Z,62.22
2019-05-30T23:47:53.524Z,61.67
2019-05-30T23:50:24.481Z,62.12
2019-05-30T23:52:56.325Z,62.39
2019-05-30T23:55:27.268Z,62.16
2019-05-30T23:57:58.663Z,59.59
